createdAt,value
2022-11-24T00:01:52.455Z,80.20
2022-11-24T00:04:23.785Z,80.75
2022-11-24T00:06:53.321Z,80.59
2022-11-24T00:09:25.050Z,80.64
2022-11-24T00:11:53.922Z,81.00
2022-11-24T00:14:28.160Z,80.92
2022-11-24T00:16:56.989Z,81.04
2022-11-24T00:19:28.221Z,80.37
2022-11-24T00:21:58.884Z,81.03
2022-11-24T00:24:29.537Z,80.89
2022-11-24T00:26:58.326Z,80.60
2022-11-24T00:29:27.150Z,80.08
2022-11-24T00:31:57.550Z,80.09
2022-11-24T00:34:26.510Z,80.53
2022-11-24T00:36:57.988Z,80.46
2022-11-24T00:39:26.864Z,80.85
2022-11-24T00:41:56.268Z,80.58
2022-11-24T00:44:28.177Z,80.24
2022-11-24T00:46:59.564Z,80.73
2022-11-24T00:49:29.628Z,80.39
2022-11-24T00:51:58.387Z,80.95
2022-11-24T00:54:27.270Z,81.06
2022-11-24T00:56:56.593Z,80.38
2022-11-24T00:59:25.582Z,80.52
2022-11-24T01:01:55.050Z,80.65
2022-11-24T01:04:24.021Z,81.03
2022-11-24T01:06:55.922Z,80.36
2022-11-24T01:09:26.743Z,80.29
2022-11-24T01:12:01.811Z,80.65
2022-11-24T01:14:34.562Z,80.46
2022-11-24T01:17:03.768Z,80.69
2022-11-24T01:19:32.986Z,80.99
2022-11-24T01:22:04.430Z,80.67
2022-11-24T01:24:33.390Z,80.34
2022-11-24T01:27:03.777Z,80.68
2022-11-24T01:29:32.544Z,80.86
2022-11-24T01:32:02.568Z,80.80
2022-11-24T01:34:31.996Z,80.87
2022-11-24T01:37:01.168Z,80.85
2022-11-24T01:39:32.396Z,80.95
2022-11-24T01:42:02.329Z,80.71
2022-11-24T01:44:38.390Z,80.40
2022-11-24T01:47:27.869Z,81.03
2022-11-24T01:50:03.102Z,80.50
2022-11-24T01:52:36.911Z,80.46
2022-11-24T01:55:13.154Z,80.67
2022-11-24T01:57:50.156Z,80.64
2022-11-24T02:00:19.582Z,80.78
2022-11-24T02:02:49.828Z,80.93
2022-11-24T02:05:23.799Z,80.82
2022-11-24T02:07:56.600Z,80.66
2022-11-24T02:10:28.374Z,80.46
2022-11-24T02:13:00.252Z,80.70
2022-11-24T02:15:30.691Z,80.49
2022-11-24T02:18:00.055Z,80.88
2022-11-24T02:20:28.739Z,80.78
2022-11-24T02:23:09.787Z,80.38
2022-11-24T02:25:49.293Z,80.69
2022-11-24T02:28:20.826Z,80.64
2022-11-24T02:30:50.866Z,80.88
2022-11-24T02:33:22.061Z,81.10
2022-11-24T02:35:53.087Z,80.63
2022-11-24T02:38:31.154Z,80.59
2022-11-24T02:41:02.969Z,81.04
2022-11-24T02:43:35.837Z,80.74
2022-11-24T02:46:05.384Z,80.79
2022-11-24T02:48:36.747Z,80.67
2022-11-24T02:51:06.523Z,80.75
2022-11-24T02:53:37.957Z,80.74
2022-11-24T02:56:08.109Z,80.70
2022-11-24T02:58:36.777Z,80.42
2022-11-24T03:01:05.870Z,80.90
2022-11-24T03:03:34.975Z,80.87
2022-11-24T03:06:07.007Z,80.73
2022-11-24T03:08:35.872Z,80.87
2022-11-24T03:11:05.641Z,80.85
2022-11-24T03:13:34.220Z,80.60
2022-11-24T03:16:02.946Z,81.13
2022-11-24T03:18:31.545Z,80.63
2022-11-24T03:21:01.172Z,80.67
2022-11-24T03:23:29.884Z,80.45
2022-11-24T03:26:08.992Z,80.71
2022-11-24T03:28:37.606Z,80.38
2022-11-24T03:31:06.859Z,80.96
2022-11-24T03:33:35.942Z,80.79
2022-11-24T03:36:09.072Z,80.54
2022-11-24T03:38:38.157Z,80.75
2022-11-24T03:41:06.888Z,80.66
2022-11-24T03:43:40.435Z,80.74
2022-11-24T03:46:12.885Z,80.79
2022-11-24T03:48:41.923Z,80.94
2022-11-24T03:51:11.324Z,80.82
2022-11-24T03:53:40.485Z,80.83
2022-11-24T03:56:09.457Z,80.85
2022-11-24T03:58:38.078Z,80.39
2022-11-24T04:01:06.710Z,80.80
2022-11-24T04:03:35.405Z,80.91
2022-11-24T04:06:06.560Z,80.76
2022-11-24T04:08:35.633Z,80.64
2022-11-24T04:11:04.895Z,80.60
2022-11-24T04:13:33.606Z,81.19
2022-11-24T04:16:06.244Z,80.52
2022-11-24T04:18:37.751Z,80.98
2022-11-24T04:21:06.598Z,81.29
2022-11-24T04:23:35.253Z,80.92
2022-11-24T04:26:04.079Z,80.98
2022-11-24T04:28:38.043Z,81.00
2022-11-24T04:31:12.162Z,80.66
2022-11-24T04:33:41.064Z,81.27
2022-11-24T04:36:10.300Z,81.20
2022-11-24T04:39:22.852Z,80.75
2022-11-24T04:41:28.333Z,81.26
2022-11-24T04:43:57.231Z,80.63
2022-11-24T04:46:37.859Z,81.21
2022-11-24T04:49:11.008Z,80.97
2022-11-24T04:51:40.242Z,80.75
2022-11-24T04:54:11.952Z,80.88
2022-11-24T04:56:41.451Z,80.98
2022-11-24T04:59:17.070Z,80.69
2022-11-24T05:01:49.665Z,81.11
2022-11-24T05:04:20.547Z,80.93
2022-11-24T05:06:49.271Z,80.81
2022-11-24T05:09:18.289Z,81.15
2022-11-24T05:11:51.387Z,80.70
2022-11-24T05:14:20.501Z,80.82
2022-11-24T05:16:49.840Z,81.46
2022-11-24T05:19:18.592Z,81.44
2022-11-24T05:21:48.579Z,81.31
2022-11-24T05:24:17.218Z,80.65
2022-11-24T05:26:45.905Z,80.70
2022-11-24T05:31:59.076Z,80.80
2022-11-24T05:34:28.255Z,81.14
2022-11-24T05:37:02.427Z,80.92
2022-11-24T05:39:38.246Z,81.09
2022-11-24T05:42:23.437Z,81.19
2022-11-24T05:44:52.806Z,81.10
2022-11-24T05:47:25.329Z,81.26
2022-11-24T05:49:56.401Z,81.43
2022-11-24T05:52:28.130Z,81.03
2022-11-24T05:54:56.762Z,81.32
2022-11-24T05:57:28.245Z,81.26
2022-11-24T05:59:56.867Z,80.89
2022-11-24T06:02:31.960Z,80.74
2022-11-24T06:05:00.597Z,81.04
2022-11-24T06:07:29.273Z,80.57
2022-11-24T06:09:57.846Z,81.32
2022-11-24T06:12:26.688Z,81.59
2022-11-24T06:14:55.479Z,80.98
2022-11-24T06:17:24.569Z,80.51
2022-11-24T06:19:53.331Z,81.55
2022-11-24T06:22:21.932Z,80.95
2022-11-24T06:24:50.624Z,81.53
2022-11-24T06:27:19.190Z,80.82
2022-11-24T06:29:47.720Z,80.52
2022-11-24T06:32:19.663Z,81.46
2022-11-24T06:34:49.106Z,81.45
2022-11-24T06:37:18.410Z,81.44
2022-11-24T06:39:48.797Z,80.98
2022-11-24T06:42:18.562Z,81.33
2022-11-24T06:44:47.493Z,81.45
2022-11-24T06:47:16.609Z,80.78
2022-11-24T06:49:46.875Z,81.17
2022-11-24T06:52:17.576Z,81.39
2022-11-24T06:54:46.514Z,81.56
2022-11-24T06:57:18.150Z,81.17
2022-11-24T06:59:49.299Z,80.91
2022-11-24T07:02:18.094Z,81.13
2022-11-24T07:04:47.562Z,81.11
2022-11-24T07:07:17.869Z,81.33
2022-11-24T07:09:46.613Z,81.16
2022-11-24T07:12:16.001Z,81.33
2022-11-24T07:14:47.810Z,81.18
2022-11-24T07:17:16.979Z,80.72
2022-11-24T07:19:45.673Z,80.72
2022-11-24T07:22:15.536Z,81.43
2022-11-24T07:24:44.076Z,80.97
2022-11-24T07:27:12.826Z,81.36
2022-11-24T07:29:41.918Z,81.01
2022-11-24T07:32:10.729Z,80.58
2022-11-24T07:34:39.616Z,81.41
2022-11-24T07:37:08.404Z,81.09
2022-11-24T07:39:37.223Z,80.81
2022-11-24T07:42:06.440Z,81.20
2022-11-24T07:44:35.530Z,80.62
2022-11-24T07:47:04.527Z,80.92
2022-11-24T07:49:33.122Z,80.74
2022-11-24T07:52:01.906Z,81.27
2022-11-24T07:54:30.905Z,81.32
2022-11-24T07:56:59.502Z,81.45
2022-11-24T07:59:28.195Z,80.73
2022-11-24T08:01:57.107Z,81.09
2022-11-24T08:04:25.894Z,80.48
2022-11-24T08:06:54.659Z,81.26
2022-11-24T08:09:23.557Z,81.40
2022-11-24T08:11:52.273Z,80.97
2022-11-24T08:14:21.027Z,81.27
2022-11-24T08:16:50.767Z,81.34
2022-11-24T08:19:19.803Z,81.06
2022-11-24T08:21:48.572Z,81.14
2022-11-24T08:24:17.852Z,80.90
2022-11-24T08:26:46.928Z,80.80
2022-11-24T08:29:16.492Z,81.10
2022-11-24T08:31:45.480Z,80.64
2022-11-24T08:34:14.452Z,80.77
2022-11-24T08:36:43.092Z,80.50
2022-11-24T08:39:11.826Z,80.92
2022-11-24T08:41:41.135Z,81.10
2022-11-24T08:44:10.201Z,81.30
2022-11-24T08:46:39.883Z,80.24
2022-11-24T08:49:09.432Z,81.30
2022-11-24T08:51:38.615Z,80.51
2022-11-24T08:54:09.651Z,81.08
2022-11-24T08:56:38.367Z,80.36
2022-11-24T08:59:07.379Z,81.14
2022-11-24T09:01:36.612Z,80.79
2022-11-24T09:04:06.005Z,80.89
2022-11-24T09:06:35.065Z,81.16
2022-11-24T09:09:04.158Z,81.40
2022-11-24T09:11:34.639Z,81.12
2022-11-24T09:14:04.407Z,81.22
2022-11-24T09:16:33.500Z,81.33
2022-11-24T09:19:04.722Z,81.08
2022-11-24T09:21:37.310Z,81.06
2022-11-24T09:24:07.645Z,80.79
2022-11-24T09:26:43.135Z,80.55
2022-11-24T09:29:15.722Z,80.47
2022-11-24T09:31:45.286Z,80.80
2022-11-24T09:34:15.908Z,79.91
2022-11-24T09:36:45.304Z,80.58
2022-11-24T09:39:14.384Z,81.13
2022-11-24T09:41:57.900Z,81.02
2022-11-24T09:44:46.239Z,81.18
2022-11-24T09:47:25.741Z,80.78
2022-11-24T09:50:01.020Z,80.12
2022-11-24T09:52:40.874Z,80.97
2022-11-24T09:55:28.355Z,80.44
2022-11-24T09:58:09.490Z,81.18
2022-11-24T10:00:38.784Z,80.39
2022-11-24T10:03:18.523Z,80.27
2022-11-24T10:05:51.167Z,80.06
2022-11-24T10:08:34.096Z,80.84
2022-11-24T10:11:11.347Z,80.95
2022-11-24T10:13:59.798Z,80.91
2022-11-24T10:16:45.358Z,80.47
2022-11-24T10:19:36.318Z,80.44
2022-11-24T10:22:23.637Z,80.45
2022-11-24T10:25:12.053Z,80.79
2022-11-24T10:27:44.111Z,80.30
2022-11-24T10:30:19.618Z,81.12
2022-11-24T10:32:49.986Z,80.34
2022-11-24T10:35:27.609Z,80.27
2022-11-24T10:38:08.659Z,80.30
2022-11-24T10:40:56.405Z,79.98
2022-11-24T10:43:28.020Z,80.48
2022-11-24T10:46:08.123Z,80.04
2022-11-24T10:48:44.272Z,80.66
2022-11-24T10:51:39.593Z,80.66
2022-11-24T10:54:15.771Z,80.08
2022-11-24T10:56:48.747Z,80.18
2022-11-24T10:59:37.518Z,80.41
2022-11-24T11:02:29.363Z,80.66
2022-11-24T11:04:58.200Z,80.50
2022-11-24T11:07:27.456Z,80.33
2022-11-24T11:10:27.544Z,80.85
2022-11-24T11:12:56.172Z,80.55
2022-11-24T11:15:29.112Z,80.80
2022-11-24T11:18:00.440Z,80.21
2022-11-24T11:20:31.937Z,80.30
2022-11-24T11:23:13.477Z,79.86
2022-11-24T11:25:43.297Z,80.56
2022-11-24T11:28:23.398Z,80.13
2022-11-24T11:31:16.820Z,80.62
2022-11-24T11:34:05.925Z,79.95
2022-11-24T11:36:41.401Z,79.90
2022-11-24T11:39:21.151Z,79.74
2022-11-24T11:41:54.947Z,80.23
2022-11-24T11:44:35.233Z,79.92
2022-11-24T11:47:14.104Z,79.99
2022-11-24T11:49:44.180Z,79.96
2022-11-24T11:52:43.531Z,80.71
2022-11-24T11:55:45.311Z,80.28
2022-11-24T11:59:01.100Z,80.36
2022-11-24T12:02:06.838Z,79.96
2022-11-24T12:04:49.831Z,80.12
2022-11-24T12:07:45.662Z,80.68
2022-11-24T12:10:24.485Z,80.38
2022-11-24T12:13:14.725Z,80.61
2022-11-24T12:15:48.257Z,80.28
2022-11-24T12:21:29.761Z,80.87
2022-11-24T12:24:10.282Z,80.15
2022-11-24T12:26:49.637Z,80.60
2022-11-24T12:29:45.372Z,79.73
2022-11-24T12:32:34.471Z,80.77
2022-11-24T12:35:15.342Z,80.29
2022-11-24T12:37:57.391Z,80.68
2022-11-24T12:40:46.572Z,79.63
2022-11-24T12:43:27.069Z,79.86
2022-11-24T12:46:01.846Z,80.19
2022-11-24T12:48:57.323Z,79.90
2022-11-24T12:51:32.064Z,80.52
2022-11-24T12:54:05.600Z,80.94
2022-11-24T12:56:42.362Z,80.00
2022-11-24T12:59:25.500Z,80.00
2022-11-24T13:02:11.467Z,80.94
2022-11-24T13:04:46.807Z,81.00
2022-11-24T13:07:20.963Z,80.05
2022-11-24T13:10:40.148Z,80.97
2022-11-24T13:13:12.606Z,79.89
2022-11-24T13:19:17.363Z,80.75
2022-11-24T13:22:09.726Z,80.07
2022-11-24T13:24:40.200Z,80.64
2022-11-24T13:27:35.485Z,79.81
2022-11-24T13:30:54.006Z,80.40
2022-11-24T13:33:37.407Z,79.59
2022-11-24T13:36:30.700Z,80.07
2022-11-24T13:39:00.277Z,80.17
2022-11-24T13:42:10.542Z,80.35
2022-11-24T13:45:01.150Z,80.52
2022-11-24T13:47:39.100Z,80.08
2022-11-24T13:50:22.996Z,80.58
2022-11-24T13:53:00.655Z,80.46
2022-11-24T13:55:38.209Z,79.97
2022-11-24T13:58:29.637Z,80.60
2022-11-24T14:01:05.886Z,80.57
2022-11-24T14:03:36.909Z,80.39
2022-11-24T14:06:06.199Z,80.06
2022-11-24T14:08:37.588Z,79.71
2022-11-24T14:11:13.825Z,80.44
2022-11-24T14:13:42.908Z,80.59
2022-11-24T14:16:17.198Z,80.39
2022-11-24T14:18:48.046Z,80.89
2022-11-24T14:21:24.367Z,80.51
2022-11-24T14:23:55.912Z,80.47
2022-11-24T14:26:30.539Z,80.59
2022-11-24T14:29:06.292Z,80.79
2022-11-24T14:31:35.611Z,80.13
2022-11-24T14:34:20.697Z,80.28
2022-11-24T14:36:50.214Z,79.94
2022-11-24T14:39:22.456Z,79.82
2022-11-24T14:41:55.653Z,80.47
2022-11-24T14:44:26.607Z,80.08
2022-11-24T14:47:03.923Z,80.62
2022-11-24T14:49:34.365Z,80.79
2022-11-24T14:52:09.260Z,79.94
2022-11-24T14:54:46.498Z,80.68
2022-11-24T14:57:29.810Z,80.13
2022-11-24T15:00:15.086Z,80.71
2022-11-24T15:02:47.777Z,80.57
2022-11-24T15:05:18.412Z,80.19
2022-11-24T15:07:49.678Z,80.24
2022-11-24T15:10:22.574Z,80.05
2022-11-24T15:12:56.226Z,80.35
2022-11-24T15:15:30.481Z,80.53
2022-11-24T15:17:59.298Z,80.81
2022-11-24T15:20:31.620Z,80.63
2022-11-24T15:23:23.084Z,79.92
2022-11-24T15:25:53.768Z,80.54
2022-11-24T15:28:25.257Z,80.85
2022-11-24T15:30:54.550Z,80.17
2022-11-24T15:33:23.881Z,80.37
2022-11-24T15:35:53.059Z,80.09
2022-11-24T15:38:25.077Z,80.68
2022-11-24T15:40:57.695Z,80.22
2022-11-24T15:43:30.805Z,80.49
2022-11-24T15:46:00.498Z,80.08
2022-11-24T15:48:29.819Z,80.77
2022-11-24T15:51:01.264Z,80.25
2022-11-24T15:53:32.914Z,80.21
2022-11-24T15:56:03.238Z,80.34
2022-11-24T15:58:31.980Z,80.44
2022-11-24T16:01:00.736Z,80.95
2022-11-24T16:06:24.596Z,80.44
2022-11-24T16:08:54.567Z,80.60
2022-11-24T16:11:23.778Z,80.11
2022-11-24T16:13:54.060Z,80.86
2022-11-24T16:16:25.024Z,80.10
2022-11-24T16:18:53.857Z,80.24
2022-11-24T16:21:22.738Z,80.06
2022-11-24T16:23:51.468Z,80.68
2022-11-24T16:26:20.883Z,80.80
2022-11-24T16:28:49.751Z,80.58
2022-11-24T16:31:19.290Z,80.34
2022-11-24T16:33:48.627Z,80.96
2022-11-24T16:36:17.341Z,80.13
2022-11-24T16:38:46.091Z,80.32
2022-11-24T16:41:15.422Z,80.56
2022-11-24T16:43:44.133Z,80.73
2022-11-24T16:46:19.354Z,80.63
2022-11-24T16:48:52.626Z,80.86
2022-11-24T16:51:23.871Z,80.97
2022-11-24T16:53:58.637Z,80.65
2022-11-24T16:56:28.652Z,80.09
2022-11-24T16:58:57.395Z,80.26
2022-11-24T17:01:26.193Z,80.24
2022-11-24T17:03:55.660Z,80.51
2022-11-24T17:06:25.474Z,80.97
2022-11-24T17:08:56.145Z,80.45
2022-11-24T17:11:29.287Z,80.82
2022-11-24T17:14:01.108Z,80.59
2022-11-24T17:16:32.971Z,80.65
2022-11-24T17:19:07.896Z,80.58
2022-11-24T17:21:37.955Z,81.15
2022-11-24T17:24:15.230Z,80.51
2022-11-24T17:26:55.784Z,80.60
2022-11-24T17:29:25.374Z,80.45
2022-11-24T17:31:54.141Z,80.28
2022-11-24T17:34:25.367Z,80.54
2022-11-24T17:36:54.619Z,80.35
2022-11-24T17:39:28.295Z,80.61
2022-11-24T17:41:57.725Z,80.65
2022-11-24T17:44:26.737Z,80.82
2022-11-24T17:46:55.612Z,80.38
2022-11-24T17:49:24.489Z,80.58
2022-11-24T17:51:53.891Z,81.37
2022-11-24T17:54:45.511Z,80.44
2022-11-24T17:57:13.064Z,80.89
2022-11-24T17:59:41.989Z,81.30
2022-11-24T18:02:10.910Z,80.84
2022-11-24T18:04:40.192Z,80.66
2022-11-24T18:07:09.037Z,80.28
2022-11-24T18:09:38.149Z,80.18
2022-11-24T18:12:08.254Z,80.54
2022-11-24T18:14:37.448Z,80.60
2022-11-24T18:17:07.002Z,81.02
2022-11-24T18:19:35.981Z,80.61
2022-11-24T18:22:04.805Z,80.76
2022-11-24T18:24:33.562Z,80.77
2022-11-24T18:27:06.246Z,81.22
2022-11-24T18:29:35.939Z,81.30
2022-11-24T18:32:06.902Z,81.16
2022-11-24T18:34:37.163Z,81.01
2022-11-24T18:37:16.072Z,80.75
2022-11-24T18:39:44.705Z,81.34
2022-11-24T18:42:13.556Z,81.27
2022-11-24T18:44:42.493Z,80.48
2022-11-24T18:47:11.624Z,80.79
2022-11-24T18:49:40.440Z,80.51
2022-11-24T18:52:10.457Z,80.42
2022-11-24T18:54:39.397Z,81.19
2022-11-24T18:57:08.818Z,80.82
2022-11-24T18:59:39.166Z,81.09
2022-11-24T19:02:13.118Z,80.58
2022-11-24T19:04:50.736Z,80.85
2022-11-24T19:07:21.436Z,80.47
2022-11-24T19:09:51.170Z,81.43
2022-11-24T19:12:20.145Z,80.62
2022-11-24T19:14:49.326Z,81.09
2022-11-24T19:17:18.159Z,81.19
2022-11-24T19:19:50.702Z,80.94
2022-11-24T19:22:20.213Z,81.08
2022-11-24T19:24:50.676Z,80.89
2022-11-24T19:27:21.407Z,81.17
2022-11-24T19:29:51.092Z,81.10
2022-11-24T19:32:27.351Z,81.24
2022-11-24T19:34:56.110Z,81.40
2022-11-24T19:37:26.156Z,81.15
2022-11-24T19:39:54.915Z,80.88
2022-11-24T19:42:26.164Z,81.04
2022-11-24T19:44:56.878Z,81.15
2022-11-24T19:47:27.308Z,80.51
2022-11-24T19:49:56.166Z,81.21
2022-11-24T19:52:27.926Z,81.00
2022-11-24T19:54:59.321Z,80.54
2022-11-24T19:57:28.528Z,80.80
2022-11-24T19:59:57.460Z,81.49
2022-11-24T20:02:29.030Z,81.47
2022-11-24T20:04:58.350Z,80.42
2022-11-24T20:07:30.029Z,81.47
2022-11-24T20:10:07.374Z,81.06
2022-11-24T20:12:36.758Z,80.90
2022-11-24T20:15:08.117Z,81.33
2022-11-24T20:17:37.349Z,81.15
2022-11-24T20:20:07.872Z,81.29
2022-11-24T20:22:36.617Z,80.82
2022-11-24T20:25:08.790Z,80.82
2022-11-24T20:27:37.661Z,81.14
2022-11-24T20:30:10.196Z,81.52
2022-11-24T20:32:39.092Z,81.54
2022-11-24T20:35:13.556Z,81.09
2022-11-24T20:37:48.103Z,81.01
2022-11-24T20:40:17.232Z,80.77
2022-11-24T20:42:46.155Z,81.00
2022-11-24T20:45:17.902Z,81.52
2022-11-24T20:47:46.660Z,80.93
2022-11-24T20:50:15.454Z,81.53
2022-11-24T20:52:44.168Z,81.69
2022-11-24T20:55:14.216Z,81.25
2022-11-24T20:57:45.624Z,81.38
2022-11-24T21:00:15.762Z,80.86
2022-11-24T21:02:44.541Z,81.55
2022-11-24T21:05:14.245Z,81.74
2022-11-24T21:07:45.414Z,81.64
2022-11-24T21:10:14.404Z,81.44
2022-11-24T21:12:43.315Z,80.70
2022-11-24T21:15:16.468Z,80.85
2022-11-24T21:17:45.441Z,80.97
2022-11-24T21:20:14.295Z,80.86
2022-11-24T21:22:43.035Z,81.67
2022-11-24T21:25:11.887Z,81.47
2022-11-24T21:27:41.069Z,81.20
2022-11-24T21:30:12.236Z,81.37
2022-11-24T21:32:41.314Z,81.60
2022-11-24T21:35:10.588Z,81.30
2022-11-24T21:37:39.507Z,81.77
2022-11-24T21:40:09.955Z,81.14
2022-11-24T21:42:38.825Z,80.83
2022-11-24T21:45:11.301Z,80.95
2022-11-24T21:47:42.120Z,81.15
2022-11-24T21:50:12.278Z,81.20
2022-11-24T21:52:41.150Z,81.22
2022-11-24T21:55:10.255Z,81.27
2022-11-24T21:57:39.104Z,81.83
2022-11-24T22:00:09.538Z,80.84
2022-11-24T22:02:38.536Z,80.81
2022-11-24T22:05:10.477Z,81.48
2022-11-24T22:07:40.081Z,81.56
2022-11-24T22:10:13.484Z,81.72
2022-11-24T22:12:42.942Z,81.46
2022-11-24T22:15:12.025Z,81.01
2022-11-24T22:17:40.779Z,81.96
2022-11-24T22:20:11.774Z,81.83
2022-11-24T22:22:40.553Z,81.86
2022-11-24T22:25:10.160Z,81.84
2022-11-24T22:27:38.988Z,81.14
2022-11-24T22:30:10.528Z,81.56
2022-11-24T22:32:39.352Z,81.51
2022-11-24T22:35:10.041Z,81.97
2022-11-24T22:37:39.073Z,81.60
2022-11-24T22:40:09.903Z,81.61
2022-11-24T22:42:41.699Z,81.35
2022-11-24T22:45:11.521Z,81.76
2022-11-24T22:47:40.300Z,81.59
2022-11-24T22:50:14.251Z,81.37
2022-11-24T22:52:43.027Z,81.98
2022-11-24T22:55:11.826Z,81.89
2022-11-24T22:57:48.051Z,81.85
2022-11-24T23:00:21.463Z,81.33
2022-11-24T23:02:51.474Z,81.33
2022-11-24T23:05:24.132Z,81.63
2022-11-24T23:07:53.573Z,81.89
2022-11-24T23:10:27.393Z,81.45
2022-11-24T23:12:56.327Z,81.44
2022-11-24T23:15:24.962Z,81.18
2022-11-24T23:17:53.510Z,81.77
2022-11-24T23:20:24.466Z,82.19
2022-11-24T23:22:56.427Z,81.93
2022-11-24T23:25:25.018Z,81.70
2022-11-24T23:27:53.539Z,81.53
2022-11-24T23:30:24.502Z,81.79
2022-11-24T23:32:58.340Z,81.47
2022-11-24T23:35:29.829Z,82.11
2022-11-24T23:38:07.346Z,82.22
2022-11-24T23:40:36.834Z,81.94
2022-11-24T23:43:11.226Z,81.39
2022-11-24T23:45:39.771Z,81.63
2022-11-24T23:48:08.367Z,81.65
2022-11-24T23:50:37.080Z,81.90
2022-11-24T23:53:05.863Z,81.68
2022-11-24T23:55:34.536Z,81.96
2022-11-24T23:58:04.822Z,81.36
